createdAt,value
2023-04-22T00:00:18.561Z,8.82
2023-04-22T00:05:20.707Z,8.84
2023-04-22T00:10:21.822Z,8.78
2023-04-22T00:15:22.858Z,8.75
2023-04-22T00:20:25.251Z,8.72
2023-04-22T00:25:26.011Z,8.74
2023-04-22T00:30:26.809Z,8.75
2023-04-22T00:35:27.581Z,8.74
2023-04-22T00:40:28.668Z,8.61
2023-04-22T00:45:30.554Z,8.59
2023-04-22T00:50:31.576Z,8.60
2023-04-22T00:55:32.435Z,8.45
2023-04-22T01:00:34.531Z,8.28
2023-04-22T01:05:36.201Z,8.15
2023-04-22T01:10:37.103Z,8.21
2023-04-22T01:15:39.034Z,8.33
2023-04-22T01:20:40.370Z,8.42
2023-04-22T01:25:41.374Z,8.43
2023-04-22T01:30:43.521Z,8.46
2023-04-22T01:35:44.725Z,8.42
2023-04-22T01:40:45.638Z,8.46
2023-04-22T01:45:46.739Z,8.45
2023-04-22T01:50:47.570Z,8.42
2023-04-22T01:55:48.370Z,8.42
2023-04-22T02:00:49.829Z,8.40
2023-04-22T02:05:50.646Z,8.43
2023-04-22T02:10:52.142Z,8.36
2023-04-22T02:15:53.460Z,8.38
2023-04-22T02:20:55.845Z,8.40
2023-04-22T02:25:56.664Z,8.20
2023-04-22T02:30:57.455Z,8.09
2023-04-22T02:35:58.240Z,8.05
2023-04-22T02:40:59.040Z,8.03
2023-04-22T02:46:00.241Z,8.02
2023-04-22T02:51:02.176Z,8.09
2023-04-22T02:56:03.270Z,8.06
2023-04-22T03:01:04.234Z,8.00
2023-04-22T03:06:05.358Z,8.02
2023-04-22T03:11:06.159Z,8.15
2023-04-22T03:16:07.164Z,8.10
2023-04-22T03:21:08.155Z,7.97
2023-04-22T03:26:09.572Z,8.03
2023-04-22T03:31:10.775Z,8.00
2023-04-22T03:36:11.830Z,8.03
2023-04-22T03:41:12.886Z,7.90
2023-04-22T03:46:16.635Z,7.81
2023-04-22T03:51:33.386Z,7.83
2023-04-22T03:56:36.789Z,7.93
2023-04-22T04:01:37.888Z,7.80
2023-04-22T04:06:41.174Z,7.77
2023-04-22T04:11:42.190Z,7.64
2023-04-22T04:16:44.120Z,7.59
2023-04-22T04:21:50.592Z,7.72
2023-04-22T04:26:52.959Z,7.64
2023-04-22T04:31:58.164Z,7.63
2023-04-22T04:37:03.261Z,7.60
2023-04-22T04:42:13.642Z,7.60
2023-04-22T04:47:21.951Z,7.75
2023-04-22T04:52:23.675Z,7.83
2023-04-22T04:57:26.521Z,7.68
2023-04-22T05:02:27.813Z,7.59
2023-04-22T05:07:29.889Z,7.47
2023-04-22T05:12:31.556Z,7.52
2023-04-22T05:17:33.335Z,7.65
2023-04-22T05:22:40.656Z,7.87
2023-04-22T05:27:43.724Z,8.12
2023-04-22T05:32:46.065Z,8.23
2023-04-22T05:37:47.392Z,8.67
2023-04-22T05:42:48.333Z,9.04
2023-04-22T05:47:49.872Z,9.29
2023-04-22T05:52:51.441Z,9.57
2023-04-22T05:57:52.802Z,9.96
2023-04-22T06:03:09.947Z,10.31
2023-04-22T06:08:11.007Z,10.27
2023-04-22T06:13:12.281Z,10.50
2023-04-22T06:18:13.191Z,10.49
2023-04-22T06:23:14.006Z,10.48
2023-04-22T06:28:15.506Z,10.71
2023-04-22T06:33:18.205Z,10.81
2023-04-22T06:38:20.616Z,11.03
2023-04-22T06:43:39.932Z,10.88
2023-04-22T06:48:58.980Z,11.13
2023-04-22T06:54:18.316Z,11.16
2023-04-22T06:59:19.129Z,11.28
2023-04-22T07:04:21.258Z,11.43
2023-04-22T07:09:23.398Z,11.55
2023-04-22T07:14:26.614Z,11.77
2023-04-22T07:19:27.546Z,12.11
2023-04-22T07:24:28.918Z,12.45
2023-04-22T07:29:29.710Z,12.34
2023-04-22T07:34:30.882Z,12.51
2023-04-22T07:39:31.630Z,12.64
2023-04-22T07:44:32.445Z,12.34
2023-04-22T07:49:33.589Z,12.80
2023-04-22T07:54:34.405Z,12.76
2023-04-22T07:59:35.552Z,12.62
2023-04-22T08:04:36.634Z,12.70
2023-04-22T08:09:37.799Z,12.80
2023-04-22T08:14:39.220Z,13.19
2023-04-22T08:19:40.508Z,13.12
2023-04-22T08:24:41.565Z,13.36
2023-04-22T08:29:42.865Z,13.55
2023-04-22T08:34:46.599Z,13.57
2023-04-22T08:39:47.455Z,13.42
2023-04-22T08:44:48.462Z,13.55
2023-04-22T08:49:50.860Z,13.65
2023-04-22T08:54:51.821Z,13.15
2023-04-22T08:59:54.804Z,13.10
2023-04-22T09:04:55.614Z,13.71
2023-04-22T09:09:57.275Z,14.23
2023-04-22T09:14:58.049Z,14.77
2023-04-22T09:20:00.995Z,14.85
2023-04-22T09:25:04.107Z,14.77
2023-04-22T09:30:09.138Z,15.04
2023-04-22T09:35:09.993Z,15.59
2023-04-22T09:40:15.288Z,15.44
2023-04-22T09:46:16.826Z,15.31
2023-04-22T09:51:18.354Z,15.52
2023-04-22T09:56:19.324Z,15.77
2023-04-22T10:01:20.303Z,15.82
2023-04-22T10:06:21.539Z,15.70
2023-04-22T10:11:22.681Z,15.83
2023-04-22T10:16:25.272Z,16.54
2023-04-22T10:21:28.783Z,16.25
2023-04-22T10:26:50.379Z,15.97
2023-04-22T10:32:04.973Z,15.56
2023-04-22T10:37:11.370Z,15.47
2023-04-22T10:42:14.923Z,15.36
2023-04-22T10:47:29.640Z,15.60
2023-04-22T10:52:30.557Z,16.09
2023-04-22T10:57:36.939Z,16.38
2023-04-22T11:02:41.184Z,16.69
2023-04-22T11:07:42.089Z,17.33
2023-04-22T11:12:44.251Z,17.36
2023-04-22T11:17:47.109Z,17.03
2023-04-22T11:22:52.374Z,17.56
2023-04-22T11:27:54.399Z,18.03
2023-04-22T11:32:58.948Z,18.42
2023-04-22T11:38:02.521Z,18.56
2023-04-22T11:43:05.308Z,18.57
2023-04-22T11:48:07.613Z,18.24
2023-04-22T11:53:23.174Z,17.99
2023-04-22T11:58:26.823Z,17.80
2023-04-22T12:03:29.749Z,17.70
2023-04-22T12:08:32.757Z,17.91
2023-04-22T12:13:43.487Z,17.54
2023-04-22T12:18:52.229Z,17.35
2023-04-22T12:23:55.697Z,17.28
2023-04-22T12:28:58.122Z,17.39
2023-04-22T12:33:59.491Z,17.01
2023-04-22T12:39:00.333Z,16.93
2023-04-22T12:44:01.358Z,16.90
2023-04-22T12:49:02.197Z,16.74
2023-04-22T12:54:03.295Z,16.55
2023-04-22T12:59:04.167Z,16.39
2023-04-22T13:04:05.586Z,16.26
2023-04-22T13:09:07.441Z,16.01
2023-04-22T13:14:08.617Z,16.02
2023-04-22T13:19:09.708Z,15.91
2023-04-22T13:24:10.695Z,15.80
2023-04-22T13:29:13.388Z,15.70
2023-04-22T13:34:14.574Z,15.75
2023-04-22T13:39:16.029Z,15.63
2023-04-22T13:44:16.839Z,15.57
2023-04-22T13:49:17.970Z,15.41
2023-04-22T13:54:19.042Z,15.33
2023-04-22T13:59:19.895Z,15.31
2023-04-22T14:04:20.966Z,15.32
2023-04-22T14:09:21.797Z,15.40
2023-04-22T14:14:22.596Z,15.50
2023-04-22T14:19:25.361Z,15.45
2023-04-22T14:24:26.244Z,15.46
2023-04-22T14:29:29.019Z,15.35
2023-04-22T14:34:29.780Z,15.29
2023-04-22T14:39:30.569Z,15.35
2023-04-22T14:44:31.331Z,15.45
2023-04-22T14:49:33.367Z,15.64
2023-04-22T14:54:34.295Z,16.24
2023-04-22T14:59:35.485Z,16.00
2023-04-22T15:04:36.364Z,15.92
2023-04-22T15:09:37.198Z,15.76
2023-04-22T15:14:38.464Z,15.77
2023-04-22T15:19:39.517Z,15.73
2023-04-22T15:24:40.662Z,15.65
2023-04-22T15:29:44.643Z,15.53
2023-04-22T15:34:45.434Z,15.35
2023-04-22T15:39:46.238Z,15.33
2023-04-22T15:44:47.012Z,15.29
2023-04-22T15:49:48.842Z,15.26
2023-04-22T15:54:49.748Z,15.16
2023-04-22T15:59:59.286Z,15.15
2023-04-22T16:05:14.916Z,15.32
2023-04-22T16:10:15.979Z,15.27
2023-04-22T16:15:17.208Z,15.29
2023-04-22T16:20:17.970Z,15.33
2023-04-22T16:25:19.186Z,15.20
2023-04-22T16:30:20.093Z,15.08
2023-04-22T16:35:21.136Z,15.00
2023-04-22T16:40:22.090Z,14.97
2023-04-22T16:45:22.895Z,14.96
2023-04-22T16:50:26.982Z,15.03
2023-04-22T16:55:28.169Z,15.05
2023-04-22T17:00:29.399Z,15.02
2023-04-22T17:05:30.232Z,15.02
2023-04-22T17:10:31.937Z,14.91
2023-04-22T17:15:32.832Z,14.81
2023-04-22T17:20:35.064Z,14.80
2023-04-22T17:25:36.475Z,14.73
2023-04-22T17:30:37.546Z,14.55
2023-04-22T17:35:38.365Z,14.41
2023-04-22T17:40:39.538Z,14.32
2023-04-22T17:45:40.372Z,14.08
2023-04-22T17:50:41.263Z,13.70
2023-04-22T17:55:42.089Z,13.54
2023-04-22T18:00:43.104Z,13.34
2023-04-22T18:05:43.933Z,12.99
2023-04-22T18:10:44.868Z,12.93
2023-04-22T18:15:45.598Z,12.58
2023-04-22T18:20:46.445Z,12.42
2023-04-22T18:25:47.409Z,12.33
2023-04-22T18:30:48.620Z,12.19
2023-04-22T18:35:50.167Z,12.19
2023-04-22T18:40:50.947Z,12.00
2023-04-22T18:45:51.790Z,11.95
2023-04-22T18:50:52.741Z,11.76
2023-04-22T18:55:53.932Z,11.72
2023-04-22T19:00:54.857Z,11.58
2023-04-22T19:05:56.185Z,11.62
2023-04-22T19:10:57.087Z,11.66
2023-04-22T19:15:57.886Z,11.66
2023-04-22T19:20:58.716Z,11.71
2023-04-22T19:26:00.932Z,11.59
2023-04-22T19:31:05.596Z,11.63
2023-04-22T19:36:06.468Z,11.55
2023-04-22T19:41:08.412Z,11.56
2023-04-22T19:46:09.265Z,11.54
2023-04-22T19:51:10.708Z,11.62
2023-04-22T19:56:13.153Z,11.68
2023-04-22T20:01:14.263Z,11.59
2023-04-22T20:06:16.381Z,11.49
2023-04-22T20:11:17.354Z,11.58
2023-04-22T20:16:19.943Z,11.46
2023-04-22T20:21:21.556Z,11.43
2023-04-22T20:26:22.905Z,11.27
2023-04-22T20:31:24.017Z,11.38
2023-04-22T20:36:25.649Z,11.31
2023-04-22T20:41:26.655Z,11.26
2023-04-22T20:46:27.623Z,11.22
2023-04-22T20:51:28.551Z,11.15
2023-04-22T20:56:29.454Z,11.17
2023-04-22T21:01:30.429Z,11.17
2023-04-22T21:06:33.665Z,11.15
2023-04-22T21:11:35.112Z,11.14
2023-04-22T21:16:39.681Z,11.13
2023-04-22T21:21:40.922Z,11.18
2023-04-22T21:26:43.616Z,11.19
2023-04-22T21:31:51.614Z,11.15
2023-04-22T21:36:58.681Z,11.15
2023-04-22T21:41:59.801Z,10.99
2023-04-22T21:47:01.009Z,11.12
2023-04-22T21:52:01.805Z,11.17
2023-04-22T21:57:03.014Z,11.17
2023-04-22T22:02:03.794Z,11.17
2023-04-22T22:07:04.935Z,11.10
2023-04-22T22:12:07.100Z,11.10
2023-04-22T22:17:08.767Z,11.05
2023-04-22T22:22:09.723Z,11.06
2023-04-22T22:27:10.982Z,11.02
2023-04-22T22:32:12.032Z,11.16
2023-04-22T22:37:12.989Z,10.97
2023-04-22T22:42:14.038Z,11.02
2023-04-22T22:47:16.804Z,11.10
2023-04-22T22:52:17.624Z,10.98
2023-04-22T22:57:18.556Z,10.91
2023-04-22T23:02:19.537Z,10.83
2023-04-22T23:07:21.062Z,10.80
2023-04-22T23:12:21.817Z,10.87
2023-04-22T23:17:22.771Z,10.90
2023-04-22T23:22:23.652Z,10.89
2023-04-22T23:27:24.962Z,10.87
2023-04-22T23:32:27.077Z,10.88
2023-04-22T23:37:28.765Z,10.90
2023-04-22T23:42:29.783Z,10.89
2023-04-22T23:47:30.788Z,10.79
2023-04-22T23:52:40.118Z,10.83
2023-04-22T23:57:41.872Z,10.82
